Time;durP1;ratioP1;P1;durP2;ratioP2;P2;SDS_P1;SDS_P2;PMS_P1;PMS_P2;Temp;Humidity;BMP_temperature;BMP_pressure;BME280_temperature;BME280_humidity;BME280_pressure;Samples;Min_cycle;Max_cycle;Signal;HPM_P1;HPM_P2
2024/03/30 00:00:13;;;;;;;5.73;2.10;;;;;;;5.47;70.49;99932.47;5003928;28;20209;-77
2024/03/30 00:02:40;;;;;;;5.10;2.10;;;;;;;5.47;70.98;99932.47;5003418;28;20292;-77
2024/03/30 00:05:06;;;;;;;3.37;1.97;;;;;;;5.47;70.44;99936.81;5011243;28;20207;-78
2024/03/30 00:07:38;;;;;;;5.40;2.03;;;;;;;5.47;70.85;99942.84;4999650;28;20722;-76
2024/03/30 00:10:14;;;;;;;4.60;1.73;;;;;;;5.46;71.00;99948.94;5006875;28;20243;-77
2024/03/30 00:12:41;;;;;;;2.53;1.57;;;;;;;5.45;70.60;99952.38;5007444;28;20647;-76
2024/03/30 00:15:09;;;;;;;4.73;1.60;;;;;;;5.44;70.76;99955.88;5003538;28;20240;-76
2024/03/30 00:17:36;;;;;;;2.43;1.60;;;;;;;5.44;70.96;99963.66;5007508;28;20227;-77
2024/03/30 00:20:02;;;;;;;6.87;2.00;;;;;;;5.42;70.58;99960.22;5010475;28;20580;-77
2024/03/30 00:22:29;;;;;;;3.80;2.13;;;;;;;5.42;70.81;99960.22;5001911;28;20255;-71
2024/03/30 00:24:54;;;;;;;4.50;2.07;;;;;;;5.41;71.13;99958.50;5002766;28;20573;-73
2024/03/30 00:27:23;;;;;;;4.57;1.80;;;;;;;5.41;71.07;99958.50;5002017;28;20207;-72
2024/03/30 00:29:49;;;;;;;4.50;1.60;;;;;;;5.41;70.65;99955.06;5001639;28;20669;-73
2024/03/30 00:32:15;;;;;;;2.57;1.57;;;;;;;5.39;70.74;99965.44;5003021;28;20224;-73
2024/03/30 00:34:41;;;;;;;5.57;1.70;;;;;;;5.37;70.86;99959.41;5000514;28;20728;-73
2024/03/30 00:37:08;;;;;;;10.57;1.93;;;;;;;5.37;71.12;99958.56;5003876;28;20209;-73
2024/03/30 00:39:34;;;;;;;3.83;1.90;;;;;;;5.36;70.99;99962.91;5002388;28;20205;-72
2024/03/30 00:42:01;;;;;;;4.33;1.73;;;;;;;5.36;71.16;99962.03;5004775;28;20569;-73
2024/03/30 00:44:28;;;;;;;6.27;1.77;;;;;;;5.35;71.03;99960.31;5001018;28;20193;-74
2024/03/30 00:46:55;;;;;;;3.97;1.70;;;;;;;5.33;70.99;99962.94;5003504;28;20197;-72
2024/03/30 00:49:21;;;;;;;5.50;1.60;;;;;;;5.35;71.13;99968.09;5003002;28;20205;-72
2024/03/30 00:51:48;;;;;;;5.27;1.80;;;;;;;5.33;70.92;99954.31;5001318;28;20205;-72
2024/03/30 00:54:15;;;;;;;4.23;1.57;;;;;;;5.32;71.03;99956.06;5004324;28;20220;-74
2024/03/30 00:56:41;;;;;;;2.33;1.53;;;;;;;5.32;71.00;99956.06;5005053;28;20705;-72
2024/03/30 00:59:08;;;;;;;5.57;1.80;;;;;;;5.31;71.09;99956.91;5001622;28;20230;-73
2024/03/30 01:01:35;;;;;;;3.27;1.50;;;;;;;5.29;71.21;99959.53;5007223;28;20204;-73
2024/03/30 01:04:03;;;;;;;5.17;1.60;;;;;;;5.30;71.21;99960.41;5005453;28;21016;-73
2024/03/30 01:06:29;;;;;;;2.90;1.50;;;;;;;5.27;71.01;99966.47;5005697;28;20204;-73
2024/03/30 01:08:56;;;;;;;3.10;1.50;;;;;;;5.26;71.08;99967.38;5005959;28;20208;-73
2024/03/30 01:11:22;;;;;;;4.23;1.87;;;;;;;5.26;71.14;99961.31;5006477;28;20209;-77
2024/03/30 01:13:49;;;;;;;3.53;1.37;;;;;;;5.24;71.30;99968.25;5009048;28;20570;-77
2024/03/30 01:16:16;;;;;;;4.37;1.73;;;;;;;5.22;70.94;99968.28;5006029;28;20462;-77
2024/03/30 01:18:45;;;;;;;4.83;2.00;;;;;;;5.20;70.79;99969.16;5009422;28;20240;-77
2024/03/30 01:21:12;;;;;;;3.77;1.87;;;;;;;5.16;70.78;99973.53;5006909;28;20202;-77
2024/03/30 01:23:39;;;;;;;2.47;1.50;;;;;;;5.16;71.00;99973.53;5008114;28;20727;-77
2024/03/30 01:26:09;;;;;;;7.07;1.60;;;;;;;5.11;70.55;99970.16;5012201;28;20673;-77
2024/03/30 01:28:37;;;;;;;3.03;1.60;;;;;;;5.10;70.90;99967.59;5009876;28;20209;-77
2024/03/30 01:31:03;;;;;;;2.90;1.70;;;;;;;5.08;70.88;99977.97;5010806;28;20204;-77
2024/03/30 01:33:31;;;;;;;3.60;1.50;;;;;;;5.02;70.68;99971.13;5009675;28;20248;-78
2024/03/30 01:35:58;;;;;;;4.93;1.43;;;;;;;5.01;70.87;99982.38;5008791;28;20197;-77
2024/03/30 01:38:25;;;;;;;5.13;1.57;;;;;;;4.99;70.87;99976.34;5009788;28;20212;-75
2024/03/30 01:40:51;;;;;;;3.37;1.97;;;;;;;4.96;70.96;99986.75;5008952;28;20916;-78
2024/03/30 01:43:18;;;;;;;2.67;1.43;;;;;;;4.93;70.94;99981.63;5011745;28;20467;-77
2024/03/30 01:45:44;;;;;;;5.57;1.60;;;;;;;4.89;70.75;99979.94;5014526;28;20220;-77
2024/03/30 01:48:12;;;;;;;6.30;1.93;;;;;;;4.89;70.97;99990.28;5012120;28;20700;-76
2024/03/30 01:50:40;;;;;;;4.20;1.57;;;;;;;4.84;70.85;99987.75;5008842;28;20673;-76
2024/03/30 01:53:10;;;;;;;5.37;2.10;;;;;;;4.82;70.64;99994.66;5009522;28;20484;-78
2024/03/30 01:55:38;;;;;;;5.27;1.50;;;;;;;4.79;70.84;99983.47;5011140;28;20446;-77
2024/03/30 01:58:05;;;;;;;5.10;1.40;;;;;;;4.74;70.84;99988.72;5011436;28;20247;-78
2024/03/30 02:00:31;;;;;;;3.00;1.50;;;;;;;4.71;70.57;99998.25;5009631;28;20456;-76
2024/03/30 02:03:01;;;;;;;4.30;1.67;;;;;;;4.69;70.51;100002.59;5011716;28;20212;-76
2024/03/30 02:05:28;;;;;;;3.20;1.43;;;;;;;4.63;70.91;99998.34;5016622;28;20450;-76
2024/03/30 02:08:01;;;;;;;6.07;1.57;;;;;;;4.61;70.66;100006.13;5009107;28;20462;-78
2024/03/30 02:10:29;;;;;;;3.23;1.70;;;;;;;4.59;70.77;100013.06;5010050;28;20448;-76
2024/03/30 02:12:56;;;;;;;3.83;1.57;;;;;;;4.55;70.88;100005.31;5006346;28;21066;-73
2024/03/30 02:15:22;;;;;;;4.17;1.47;;;;;;;4.53;70.97;100012.28;5005686;28;20458;-74
2024/03/30 02:17:49;;;;;;;6.33;1.57;;;;;;;4.50;70.67;100020.94;5002599;28;20452;-72
2024/03/30 02:20:15;;;;;;;3.73;1.50;;;;;;;4.47;70.92;100018.38;5002721;28;20945;-73
2024/03/30 02:22:50;;;;;;;4.10;1.60;;;;;;;4.44;71.22;100013.22;5007901;28;20458;-77
2024/03/30 02:25:18;;;;;;;2.53;1.47;;;;;;;4.39;70.85;100009.81;5011270;28;20456;-77
2024/03/30 02:27:45;;;;;;;2.97;1.40;;;;;;;4.33;70.87;100009.88;5005673;28;20463;-77
2024/03/30 02:30:15;;;;;;;5.53;1.70;;;;;;;4.34;70.73;100007.25;5008368;28;20451;-77
2024/03/30 02:32:43;;;;;;;1.97;1.47;;;;;;;4.29;70.81;100008.19;5009792;28;20566;-77
2024/03/30 02:35:09;;;;;;;4.33;1.70;;;;;;;4.30;70.86;100015.09;5005719;28;20921;-77
2024/03/30 02:37:36;;;;;;;6.30;1.40;;;;;;;4.26;70.85;100013.38;5002238;28;20782;-77
2024/03/30 02:40:06;;;;;;;4.17;1.30;;;;;;;4.25;70.87;100022.88;5005619;28;20200;-77
2024/03/30 02:42:35;;;;;;;3.23;1.50;;;;;;;4.22;70.87;100022.06;5005611;28;20454;-75
2024/03/30 02:45:01;;;;;;;3.13;1.60;;;;;;;4.19;71.05;100021.22;4998544;28;20440;-74
2024/03/30 02:47:27;;;;;;;1.83;1.40;;;;;;;4.18;71.17;100026.41;5005511;28;20851;-73
2024/03/30 02:49:54;;;;;;;4.30;1.90;;;;;;;4.15;71.04;100035.06;5002813;28;20215;-73
2024/03/30 02:52:20;;;;;;;2.40;1.50;;;;;;;4.13;71.05;100028.19;5003861;28;20448;-73
2024/03/30 02:54:48;;;;;;;5.53;1.47;;;;;;;4.09;71.05;100016.13;5003632;28;21082;-72
2024/03/30 02:57:15;;;;;;;5.73;3.27;;;;;;;4.05;71.32;100015.28;5003855;28;20502;-73
2024/03/30 02:59:42;;;;;;;3.63;1.80;;;;;;;4.07;71.29;100020.47;5002772;28;20456;-73
2024/03/30 03:02:09;;;;;;;4.70;1.50;;;;;;;4.05;71.00;100030.81;5005032;28;20944;-73
2024/03/30 03:04:35;;;;;;;5.77;1.70;;;;;;;4.04;71.28;100030.81;5001851;28;20448;-71
2024/03/30 03:07:03;;;;;;;6.17;1.90;;;;;;;4.02;71.05;100041.19;5005242;28;20813;-72
2024/03/30 03:09:29;;;;;;;2.40;1.53;;;;;;;4.00;71.52;100050.69;5002584;28;20209;-73
2024/03/30 03:11:56;;;;;;;3.33;1.40;;;;;;;3.98;71.31;100049.88;5003854;28;20506;-74
2024/03/30 03:14:21;;;;;;;3.03;1.50;;;;;;;3.96;71.33;100051.59;5003026;28;20693;-73
2024/03/30 03:16:50;;;;;;;4.43;1.60;;;;;;;3.94;71.12;100053.34;5003250;28;20447;-72
2024/03/30 03:19:16;;;;;;;2.70;1.43;;;;;;;3.93;71.61;100061.97;5004187;28;20203;-73
2024/03/30 03:21:43;;;;;;;5.23;1.97;;;;;;;3.89;71.26;100055.94;5003333;28;20447;-77
2024/03/30 03:24:08;;;;;;;1.67;1.30;;;;;;;3.87;71.56;100051.69;5010720;28;20673;-76
2024/03/30 03:26:35;;;;;;;3.53;1.70;;;;;;;3.86;71.59;100049.94;5003481;28;20447;-76
2024/03/30 03:29:01;;;;;;;2.03;1.60;;;;;;;3.85;71.39;100058.59;5006730;28;20236;-76
2024/03/30 03:31:28;;;;;;;6.80;1.80;;;;;;;3.81;71.42;100052.56;5003641;28;20474;-75
2024/03/30 03:33:55;;;;;;;6.20;1.70;;;;;;;3.80;71.25;100057.75;5005856;28;20227;-75
2024/03/30 03:36:22;;;;;;;3.97;1.50;;;;;;;3.78;71.60;100062.06;5010628;28;20446;-74
2024/03/30 03:38:48;;;;;;;1.63;1.30;;;;;;;3.77;71.37;100068.13;5007181;28;20451;-75
2024/03/30 03:41:15;;;;;;;4.47;1.70;;;;;;;3.76;71.53;100079.34;5004207;28;20437;-75
2024/03/30 03:43:42;;;;;;;3.20;1.60;;;;;;;3.72;71.46;100088.84;5004123;28;20574;-76
2024/03/30 03:46:09;;;;;;;2.83;1.60;;;;;;;3.70;71.49;100094.03;5003911;28;20444;-75
2024/03/30 03:48:35;;;;;;;3.30;1.37;;;;;;;3.67;71.45;100085.44;5007337;28;20448;-77
2024/03/30 03:51:03;;;;;;;1.67;1.40;;;;;;;3.66;71.56;100094.91;5005705;28;20458;-72
2024/03/30 03:53:29;;;;;;;2.87;1.63;;;;;;;3.63;71.55;100089.75;5002229;28;20314;-73
2024/03/30 03:55:56;;;;;;;5.27;1.60;;;;;;;3.61;71.48;100096.66;5002343;28;20882;-73
2024/03/30 03:58:22;;;;;;;3.00;1.80;;;;;;;3.60;71.71;100102.69;5004012;28;20205;-73
2024/03/30 04:00:49;;;;;;;4.40;1.53;;;;;;;3.56;71.44;100100.16;5004043;28;20542;-73
2024/03/30 04:03:15;;;;;;;3.20;1.77;;;;;;;3.56;71.66;100107.91;5000551;28;21002;-74
2024/03/30 04:05:42;;;;;;;2.13;1.57;;;;;;;3.52;71.67;100104.44;5004262;28;20448;-73
2024/03/30 04:08:09;;;;;;;5.60;1.50;;;;;;;3.52;71.64;100104.44;5000956;28;20442;-73
2024/03/30 04:10:36;;;;;;;4.77;1.67;;;;;;;3.50;71.64;100103.63;5003076;28;20452;-74
2024/03/30 04:13:02;;;;;;;2.40;1.40;;;;;;;3.48;71.64;100105.34;5002041;28;20492;-73
2024/03/30 04:15:29;;;;;;;1.83;1.67;;;;;;;3.45;71.54;100110.53;5002149;28;20784;-72
2024/03/30 04:17:55;;;;;;;2.93;1.63;;;;;;;3.40;71.55;100113.13;5003271;28;20818;-72
2024/03/30 04:20:22;;;;;;;3.47;1.40;;;;;;;3.40;71.83;100117.44;5001547;28;20487;-73
2024/03/30 04:22:48;;;;;;;4.70;1.80;;;;;;;3.36;71.87;100120.91;5005356;28;20196;-74
2024/03/30 04:25:16;;;;;;;2.60;1.40;;;;;;;3.33;71.57;100120.94;5000852;28;20462;-74
2024/03/30 04:27:42;;;;;;;5.23;1.90;;;;;;;3.31;71.52;100139.03;5003200;28;20211;-73
2024/03/30 04:30:11;;;;;;;2.43;1.30;;;;;;;3.29;71.58;100141.59;5001201;28;20455;-74
2024/03/30 04:32:37;;;;;;;2.80;1.60;;;;;;;3.26;71.90;100151.94;5006855;28;20226;-76
2024/03/30 04:35:04;;;;;;;3.10;1.60;;;;;;;3.26;71.73;100157.13;5000808;28;20487;-75
2024/03/30 04:37:32;;;;;;;4.27;1.80;;;;;;;3.24;71.98;100158.88;5003829;28;20571;-75
2024/03/30 04:39:59;;;;;;;4.97;1.50;;;;;;;3.23;71.93;100158.88;5007469;28;20460;-75
2024/03/30 04:42:27;;;;;;;3.57;1.63;;;;;;;3.22;72.04;100168.34;5002955;28;20450;-76
2024/03/30 04:44:54;;;;;;;3.33;1.90;;;;;;;3.21;72.28;100168.34;5002359;28;20461;-75
2024/03/30 04:47:19;;;;;;;2.87;2.20;;;;;;;3.21;72.39;100168.34;5005393;28;20451;-75
2024/03/30 04:49:46;;;;;;;3.37;1.80;;;;;;;3.19;72.42;100170.94;4999515;28;20460;-75
2024/03/30 04:52:12;;;;;;;2.80;1.70;;;;;;;3.21;72.49;100173.50;5003973;28;20211;-76
2024/03/30 04:54:39;;;;;;;4.37;2.20;;;;;;;3.21;72.68;100174.41;5005365;28;20486;-74
2024/03/30 04:57:05;;;;;;;2.50;1.67;;;;;;;3.21;72.68;100170.94;5005905;28;20238;-75
2024/03/30 04:59:33;;;;;;;2.70;2.00;;;;;;;3.22;73.02;100183.88;5003944;28;20484;-76
2024/03/30 05:01:59;;;;;;;4.23;2.03;;;;;;;3.21;72.86;100176.97;5003028;28;20207;-78
2024/03/30 05:04:26;;;;;;;3.83;2.00;;;;;;;3.21;72.97;100176.97;5006248;28;20460;-77
2024/03/30 05:06:52;;;;;;;3.50;2.10;;;;;;;3.22;73.02;100194.19;5002511;28;20204;-76
2024/03/30 05:09:19;;;;;;;2.43;1.80;;;;;;;3.21;73.08;100205.41;5004459;28;20449;-77
2024/03/30 05:11:44;;;;;;;3.93;1.87;;;;;;;3.22;73.20;100204.53;5008129;28;20215;-72
2024/03/30 05:14:11;;;;;;;2.60;2.00;;;;;;;3.23;73.34;100206.25;5003005;28;20492;-73
2024/03/30 05:16:39;;;;;;;7.03;2.20;;;;;;;3.25;73.34;100212.28;5001665;28;20674;-73
2024/03/30 05:20:42;;;;;;;8.30;2.67;;;;;;;3.25;73.37;100207.13;5003174;28;20542;-73
2024/03/30 05:21:52;;;;;;;3.77;1.80;;;;;;;3.27;73.50;100214.88;5003156;28;20923;-72
2024/03/30 05:24:19;;;;;;;4.40;2.17;;;;;;;3.27;73.71;100218.31;5000310;28;20491;-74
2024/03/30 05:26:45;;;;;;;2.63;2.30;;;;;;;3.29;73.82;100226.91;5003312;28;20216;-73
2024/03/30 05:29:12;;;;;;;2.43;2.00;;;;;;;3.31;73.78;100224.34;4999545;28;20810;-73
2024/03/30 05:31:39;;;;;;;3.77;1.90;;;;;;;3.34;74.00;100228.66;5003441;28;20208;-74
2024/03/30 05:34:06;;;;;;;6.70;2.03;;;;;;;3.34;73.95;100229.50;5002203;28;20489;-74
2024/03/30 05:36:32;;;;;;;2.30;2.10;;;;;;;3.37;74.21;100226.06;5001007;28;21031;-74
2024/03/30 05:38:59;;;;;;;3.97;2.30;;;;;;;3.40;74.27;100226.06;5000131;28;20454;-72
2024/03/30 05:41:25;;;;;;;5.23;2.13;;;;;;;3.41;74.34;100226.06;5002396;28;20211;-77
2024/03/30 05:43:52;;;;;;;5.23;2.33;;;;;;;3.43;74.39;100237.25;5001503;28;20939;-78
2024/03/30 05:46:22;;;;;;;4.00;2.23;;;;;;;3.46;74.63;100236.38;5003878;28;20669;-78
2024/03/30 05:48:50;;;;;;;5.20;2.57;;;;;;;3.51;74.65;100239.81;5006610;28;20458;-78
2024/03/30 05:51:16;;;;;;;8.03;2.47;;;;;;;3.54;74.78;100244.97;5007351;28;20448;-77
2024/03/30 05:53:46;;;;;;;4.73;2.77;;;;;;;3.56;74.90;100251.03;5012278;28;20500;-79
2024/03/30 05:56:13;;;;;;;5.23;2.80;;;;;;;3.62;75.14;100258.75;5008801;28;20239;-79
2024/03/30 05:58:40;;;;;;;4.67;3.10;;;;;;;3.66;75.10;100260.47;5006610;28;20482;-78
2024/03/30 06:01:06;;;;;;;4.47;2.73;;;;;;;3.69;75.37;100263.03;5006232;28;20446;-78
2024/03/30 06:03:32;;;;;;;5.60;2.87;;;;;;;3.74;75.65;100266.47;5009880;28;20509;-78
2024/03/30 06:06:01;;;;;;;5.27;2.70;;;;;;;3.80;75.88;100272.50;5009914;28;20443;-79
2024/03/30 06:08:27;;;;;;;5.53;3.10;;;;;;;3.86;76.05;100283.69;5009830;28;20991;-79
2024/03/30 06:10:53;;;;;;;5.37;3.13;;;;;;;3.92;76.13;100277.63;5008161;28;20442;-76
2024/03/30 06:13:19;;;;;;;7.07;2.90;;;;;;;3.98;76.25;100277.66;5007545;28;20205;-76
2024/03/30 06:15:46;;;;;;;7.43;3.20;;;;;;;4.05;76.39;100278.47;5006067;28;20461;-75
2024/03/30 06:18:12;;;;;;;6.03;3.23;;;;;;;4.06;76.52;100262.91;5009522;28;20197;-76
2024/03/30 06:20:39;;;;;;;6.90;3.50;;;;;;;4.20;76.98;100278.41;5001694;28;20455;-80
2024/03/30 06:23:06;;;;;;;6.10;3.60;;;;;;;4.28;77.31;100279.22;5014485;28;20220;-81
2024/03/30 06:25:33;;;;;;;7.00;3.53;;;;;;;4.36;77.37;100281.78;5018898;28;20863;-80
2024/03/30 06:27:59;;;;;;;6.63;3.57;;;;;;;4.45;77.42;100284.31;5019273;28;20800;-81
2024/03/30 06:30:26;;;;;;;6.63;2.77;;;;;;;4.53;76.99;100286.88;5016301;28;20531;-78
2024/03/30 06:32:52;;;;;;;4.93;3.17;;;;;;;4.61;77.05;100285.97;5005105;28;20205;-79
2024/03/30 06:35:19;;;;;;;7.43;2.93;;;;;;;4.70;77.14;100294.56;5006908;28;20545;-78
2024/03/30 06:37:45;;;;;;;7.40;2.77;;;;;;;4.77;76.92;100294.47;5009350;28;20213;-77
2024/03/30 06:45:42;;;;;;;3.53;2.70;;;;;;;4.99;76.90;100307.34;5008799;28;20435;-78
2024/03/30 06:48:09;;;;;;;8.57;2.93;;;;;;;5.05;76.65;100302.97;5006255;28;20454;-77
2024/03/30 06:50:36;;;;;;;7.97;3.37;;;;;;;5.12;76.91;100314.16;5009102;28;20456;-76
2024/03/30 06:53:03;;;;;;;4.80;2.33;;;;;;;5.17;76.84;100311.53;5007013;28;20460;-78
2024/03/30 06:55:30;;;;;;;6.23;2.67;;;;;;;5.24;76.34;100324.44;5008096;28;20224;-78
2024/03/30 06:57:57;;;;;;;4.83;2.43;;;;;;;5.30;76.34;100339.94;5008419;28;20515;-78
2024/03/30 07:00:23;;;;;;;5.37;2.47;;;;;;;5.35;76.41;100347.69;5006152;28;20448;-78
2024/03/30 07:02:49;;;;;;;4.23;2.13;;;;;;;5.42;76.76;100340.72;5008884;28;20454;-78
2024/03/30 07:05:16;;;;;;;5.77;2.87;;;;;;;5.48;76.64;100332.88;5006871;28;20679;-78
2024/03/30 07:07:42;;;;;;;5.17;2.73;;;;;;;5.52;76.57;100345.81;5009477;28;20201;-78
2024/03/30 07:10:09;;;;;;;4.67;2.70;;;;;;;5.58;76.74;100347.50;5005933;28;20203;-77
2024/03/30 07:12:38;;;;;;;7.57;2.70;;;;;;;5.66;76.52;100352.59;5005188;28;20249;-78
2024/03/30 07:15:05;;;;;;;7.10;3.13;;;;;;;5.72;76.25;100348.25;5009099;28;20651;-77
2024/03/30 07:17:32;;;;;;;6.20;2.90;;;;;;;5.77;76.43;100348.16;5006492;28;20268;-78
2024/03/30 07:19:58;;;;;;;8.07;3.03;;;;;;;5.85;76.24;100343.78;5006248;28;20201;-78
2024/03/30 07:22:25;;;;;;;9.23;2.80;;;;;;;5.92;76.22;100353.22;5009341;28;20208;-78
2024/03/30 07:24:52;;;;;;;7.53;2.50;;;;;;;6.00;76.12;100355.72;5007932;28;20219;-78
2024/03/30 07:27:18;;;;;;;4.50;2.73;;;;;;;6.08;76.39;100347.88;5014142;28;20196;-78
2024/03/30 07:29:50;;;;;;;4.13;2.50;;;;;;;6.18;76.13;100358.13;5010194;28;20206;-77
2024/03/30 07:32:16;;;;;;;4.90;2.67;;;;;;;6.27;75.99;100359.78;5004884;28;20209;-77
2024/03/30 07:34:46;;;;;;;5.67;2.80;;;;;;;6.36;76.22;100364.84;5003682;28;20228;-76
2024/03/30 07:37:12;;;;;;;6.77;2.87;;;;;;;6.46;76.30;100359.53;5009462;28;20211;-77
2024/03/30 07:39:40;;;;;;;5.37;2.50;;;;;;;6.58;76.25;100359.41;5007830;28;20619;-78
2024/03/30 07:42:07;;;;;;;7.33;2.53;;;;;;;6.67;75.81;100367.06;5008540;28;20779;-76
2024/03/30 07:44:34;;;;;;;4.90;2.70;;;;;;;6.79;75.65;100369.50;5009454;28;20215;-75
2024/03/30 07:47:04;;;;;;;6.03;2.50;;;;;;;6.89;75.58;100375.47;5007614;28;20213;-78
2024/03/30 07:49:31;;;;;;;7.03;2.53;;;;;;;7.00;75.60;100373.56;5005728;28;20205;-77
2024/03/30 07:51:57;;;;;;;8.67;2.47;;;;;;;7.15;75.71;100379.44;5001335;28;20216;-76
2024/03/30 07:54:24;;;;;;;7.30;2.60;;;;;;;7.26;75.49;100378.38;5006975;28;20221;-76
2024/03/30 07:56:54;;;;;;;4.17;2.47;;;;;;;7.39;75.60;100376.47;5003231;28;20233;-75
2024/03/30 07:59:22;;;;;;;5.93;2.33;;;;;;;7.48;75.54;100362.44;5011363;28;20202;-78
2024/03/30 08:01:47;;;;;;;8.83;2.47;;;;;;;7.67;75.54;100376.03;5012019;28;20203;-76
2024/03/30 08:04:17;;;;;;;3.80;2.50;;;;;;;7.80;75.30;100380.13;5015461;28;20232;-77
2024/03/30 08:06:43;;;;;;;5.77;2.43;;;;;;;7.91;74.90;100383.41;5012331;28;20210;-77
2024/03/30 08:09:10;;;;;;;7.23;2.47;;;;;;;8.06;74.86;100377.06;5014196;28;20204;-78
2024/03/30 08:11:38;;;;;;;6.07;2.40;;;;;;;8.19;74.71;100383.75;5013418;28;20205;-78
2024/03/30 08:14:04;;;;;;;7.83;2.73;;;;;;;8.31;74.54;100382.66;5007896;28;20316;-78
2024/03/30 08:16:31;;;;;;;5.43;2.27;;;;;;;8.43;74.16;100387.63;5007307;28;20234;-78
2024/03/30 08:18:58;;;;;;;5.20;2.53;;;;;;;8.54;74.11;100387.41;5008309;28;20197;-78
2024/03/30 08:21:26;;;;;;;5.37;2.70;;;;;;;8.68;73.72;100398.44;5006809;28;20208;-78
2024/03/30 08:23:52;;;;;;;5.03;2.27;;;;;;;8.81;73.42;100396.41;5006267;28;20211;-79
2024/03/30 08:26:19;;;;;;;8.93;2.40;;;;;;;8.91;73.00;100400.53;5005781;28;20203;-78
2024/03/30 08:28:46;;;;;;;6.60;2.23;;;;;;;9.03;72.81;100399.41;5005633;28;20217;-77
2024/03/30 08:31:13;;;;;;;4.40;2.40;;;;;;;9.13;72.22;100400.94;5008434;28;20265;-78
2024/03/30 08:33:39;;;;;;;6.90;2.53;;;;;;;9.26;72.42;100408.47;5006947;28;20592;-77
2024/03/30 08:36:06;;;;;;;7.10;2.60;;;;;;;9.34;72.20;100411.81;5011920;28;20226;-76
2024/03/30 08:38:33;;;;;;;8.17;2.57;;;;;;;9.44;71.89;100426.34;5006041;28;20206;-77
2024/03/30 08:41:00;;;;;;;6.10;2.50;;;;;;;9.53;71.72;100420.94;5007578;28;20201;-78
2024/03/30 08:43:26;;;;;;;5.33;2.20;;;;;;;9.61;71.63;100427.69;5012932;28;20204;-78
2024/03/30 08:45:53;;;;;;;6.67;2.40;;;;;;;9.68;71.29;100432.75;5016542;28;20311;-79
2024/03/30 08:48:20;;;;;;;5.53;2.17;;;;;;;9.76;70.94;100437.78;5013424;28;20208;-80
2024/03/30 08:50:49;;;;;;;7.73;2.77;;;;;;;9.84;70.93;100440.19;5017029;28;20219;-79
2024/03/30 08:53:15;;;;;;;5.20;1.97;;;;;;;9.89;70.69;100436.56;5014192;28;20288;-78
2024/03/30 08:55:43;;;;;;;3.13;2.20;;;;;;;9.95;70.49;100439.03;5021045;28;20228;-83
2024/03/30 08:58:09;;;;;;;6.23;2.07;;;;;;;9.99;70.11;100442.44;5014905;28;20196;-77
2024/03/30 09:00:36;;;;;;;4.73;2.30;;;;;;;10.05;69.87;100444.03;5015100;28;20428;-76
2024/03/30 09:03:03;;;;;;;6.33;2.40;;;;;;;10.07;69.37;100444.84;5010629;28;20212;-77
2024/03/30 09:05:30;;;;;;;6.37;2.30;;;;;;;10.10;69.34;100452.59;5005989;28;20235;-77
2024/03/30 09:07:57;;;;;;;6.30;2.40;;;;;;;10.14;69.08;100443.78;5004849;28;20998;-77
2024/03/30 09:10:25;;;;;;;6.97;2.70;;;;;;;10.16;69.09;100453.31;5006381;28;20197;-76
2024/03/30 09:12:53;;;;;;;6.73;2.67;;;;;;;10.18;68.52;100453.25;5012187;28;20211;-75
2024/03/30 09:15:20;;;;;;;5.37;1.90;;;;;;;10.20;68.43;100454.09;5016063;28;20242;-75
2024/03/30 09:17:46;;;;;;;6.30;2.10;;;;;;;10.20;68.52;100448.84;5015093;28;20760;-75
2024/03/30 09:20:13;;;;;;;11.00;2.37;;;;;;;10.23;67.85;100449.63;5015901;28;20238;-76
2024/03/30 09:22:39;;;;;;;4.63;1.77;;;;;;;10.22;67.87;100447.06;5014015;28;20201;-74
2024/03/30 09:25:12;;;;;;;5.77;1.80;;;;;;;10.25;67.68;100447.00;5014966;28;20238;-75
2024/03/30 09:27:38;;;;;;;9.37;2.47;;;;;;;10.32;67.66;100445.91;5015396;28;20197;-76
2024/03/30 09:30:11;;;;;;;5.33;2.13;;;;;;;10.34;67.31;100451.97;5018420;28;20287;-75
2024/03/30 09:32:39;;;;;;;5.33;2.13;;;;;;;10.37;67.20;100457.13;5009993;28;20241;-76
2024/03/30 09:35:08;;;;;;;5.47;2.10;;;;;;;10.38;67.43;100457.97;5018250;28;20271;-77
2024/03/30 09:37:34;;;;;;;3.50;1.50;;;;;;;10.40;67.36;100451.78;5013679;28;20565;-77
2024/03/30 09:40:01;;;;;;;4.97;2.23;;;;;;;10.41;66.56;100450.91;4995253;28;20218;-76
2024/03/30 09:42:31;;;;;;;5.10;2.03;;;;;;;10.45;66.01;100460.38;5004895;28;20215;-76
2024/03/30 09:44:58;;;;;;;6.10;2.10;;;;;;;10.47;66.32;100466.44;5014879;28;20205;-75
2024/03/30 09:47:26;;;;;;;6.23;2.47;;;;;;;10.47;66.12;100469.06;5013663;28;20197;-75
2024/03/30 09:49:53;;;;;;;8.40;2.20;;;;;;;10.54;66.11;100467.13;5005236;28;20287;-75
2024/03/30 09:52:20;;;;;;;4.87;2.20;;;;;;;10.58;65.93;100470.50;5005073;28;20205;-72
2024/03/30 09:54:51;;;;;;;4.37;2.10;;;;;;;10.61;66.08;100468.69;5004868;28;20233;-72
2024/03/30 09:57:17;;;;;;;3.57;1.80;;;;;;;10.67;65.95;100478.13;5002311;28;20240;-72
2024/03/30 09:59:44;;;;;;;6.00;2.20;;;;;;;10.68;65.88;100469.34;5006523;28;20216;-73
2024/03/30 10:02:10;;;;;;;3.97;1.80;;;;;;;10.74;65.50;100471.81;5002474;28;20209;-77
2024/03/30 10:04:39;;;;;;;5.43;2.10;;;;;;;10.78;65.74;100469.94;5004422;28;20216;-77
2024/03/30 10:07:11;;;;;;;8.50;2.60;;;;;;;10.83;65.30;100475.91;5003851;28;20697;-76
2024/03/30 10:09:38;;;;;;;4.87;1.70;;;;;;;10.86;65.28;100471.47;5003304;28;20203;-75
2024/03/30 10:12:11;;;;;;;5.17;1.90;;;;;;;10.89;64.83;100473.16;5006368;28;20204;-75
2024/03/30 10:14:44;;;;;;;6.70;2.33;;;;;;;10.95;65.10;100485.19;5002737;28;20717;-74
2024/03/30 10:17:10;;;;;;;7.87;2.37;;;;;;;10.98;64.45;100496.47;5003293;28;20200;-76
2024/03/30 10:19:41;;;;;;;3.53;1.60;;;;;;;11.02;64.40;100486.75;5004334;28;20236;-77
2024/03/30 10:22:07;;;;;;;6.70;2.07;;;;;;;11.04;64.10;100479.69;5004593;28;20315;-78
2024/03/30 10:24:34;;;;;;;6.83;1.83;;;;;;;11.07;64.34;100475.25;5006038;28;20259;-76
2024/03/30 10:27:00;;;;;;;4.10;1.40;;;;;;;11.10;63.70;100482.16;5012761;28;20212;-77
2024/03/30 10:29:27;;;;;;;5.33;1.90;;;;;;;11.12;63.35;100478.59;5009773;28;20200;-78
2024/03/30 10:31:53;;;;;;;2.93;1.50;;;;;;;11.15;63.61;100488.09;5010425;28;20295;-78
2024/03/30 10:34:20;;;;;;;3.90;1.83;;;;;;;11.19;63.65;100487.13;5011235;28;20268;-76
2024/03/30 10:36:48;;;;;;;4.33;1.60;;;;;;;11.20;63.39;100482.72;5006626;28;20201;-76
2024/03/30 10:39:15;;;;;;;3.87;1.50;;;;;;;11.22;62.86;100479.16;5012185;28;20699;-79
2024/03/30 10:41:42;;;;;;;2.03;1.57;;;;;;;11.25;63.05;100484.31;5002726;28;20197;-78
2024/03/30 10:44:09;;;;;;;6.27;1.80;;;;;;;11.26;63.09;100482.53;5005725;28;20207;-77
2024/03/30 10:46:35;;;;;;;5.10;1.60;;;;;;;11.29;62.88;100490.31;5014702;28;20223;-79
2024/03/30 10:49:02;;;;;;;4.50;1.63;;;;;;;11.30;62.55;100490.28;5007509;28;20201;-78
2024/03/30 10:51:28;;;;;;;3.10;1.50;;;;;;;11.31;62.53;100489.34;5009960;28;20218;-80
2024/03/30 10:54:06;;;;;;;2.67;1.60;;;;;;;11.31;62.40;100505.06;5005744;28;20205;-78
2024/03/30 10:56:31;;;;;;;5.23;1.43;;;;;;;11.31;62.04;100501.59;4968596;28;1239611;-76
2024/03/30 10:59:01;;;;;;;6.53;1.67;;;;;;;11.32;62.21;100496.34;5011899;28;20208;-77
2024/03/30 11:01:29;;;;;;;5.07;1.80;;;;;;;11.34;61.76;100510.22;5010725;28;20580;-74
2024/03/30 11:03:57;;;;;;;5.37;1.70;;;;;;;11.35;61.82;100511.97;5009185;28;20250;-75
2024/03/30 11:06:24;;;;;;;4.60;1.50;;;;;;;11.36;61.73;100507.56;5008384;28;20296;-79
2024/03/30 11:08:51;;;;;;;5.47;1.50;;;;;;;11.36;61.45;100508.41;5005413;28;20285;-77
2024/03/30 11:11:19;;;;;;;3.87;1.60;;;;;;;11.38;61.73;100505.78;5006047;28;20213;-76
2024/03/30 11:13:46;;;;;;;5.90;1.77;;;;;;;11.39;61.72;100512.72;5010657;28;20213;-76
2024/03/30 11:16:13;;;;;;;8.07;1.70;;;;;;;11.40;61.24;100514.41;5009498;28;20228;-76
2024/03/30 11:18:54;;;;;;;3.70;1.50;;;;;;;11.42;61.27;100517.84;5007757;28;20209;-76
2024/03/30 11:21:27;;;;;;;5.47;1.73;;;;;;;11.44;60.85;100517.81;5006683;28;20200;-77
2024/03/30 11:23:57;;;;;;;4.87;1.60;;;;;;;11.45;61.02;100506.44;5006103;28;20775;-77
2024/03/30 11:26:26;;;;;;;2.67;1.50;;;;;;;11.44;61.22;100505.56;5014070;28;20205;-75
2024/03/30 11:29:00;;;;;;;5.27;1.67;;;;;;;11.45;60.48;100499.41;5006508;28;20269;-75
2024/03/30 11:31:34;;;;;;;5.63;1.60;;;;;;;11.47;60.66;100500.25;5010280;28;20219;-76
2024/03/30 11:34:05;;;;;;;3.47;1.40;;;;;;;11.47;60.68;100494.16;5007000;28;20223;-76
2024/03/30 11:36:44;;;;;;;2.07;1.40;;;;;;;11.49;60.35;100494.94;5007565;28;20695;-77
2024/03/30 11:39:16;;;;;;;6.03;1.87;;;;;;;11.50;60.06;100494.06;5003895;28;20201;-77